sensor_id;sensor_type;location;lat;lon;timestamp;P1;durP1;ratioP1;P2;durP2;ratioP2
8279;SDS011;8335;42.646;23.380;2022-11-20T00:00:18;11.73;;;8.30;;
8279;SDS011;8335;42.646;23.380;2022-11-20T00:02:46;11.30;;;8.50;;
8279;SDS011;8335;42.646;23.380;2022-11-20T00:05:13;11.17;;;8.30;;
8279;SDS011;8335;42.646;23.380;2022-11-20T00:07:40;10.73;;;7.23;;
8279;SDS011;8335;42.646;23.380;2022-11-20T00:10:07;12.40;;;7.50;;
8279;SDS011;8335;42.646;23.380;2022-11-20T00:12:34;11.30;;;7.30;;
8279;SDS011;8335;42.646;23.380;2022-11-20T00:15:01;9.27;;;7.03;;
8279;SDS011;8335;42.646;23.380;2022-11-20T00:17:28;11.50;;;7.03;;
8279;SDS011;8335;42.646;23.380;2022-11-20T00:19:56;10.20;;;6.90;;
8279;SDS011;8335;42.646;23.380;2022-11-20T00:22:22;9.27;;;7.43;;
8279;SDS011;8335;42.646;23.380;2022-11-20T00:24:49;12.53;;;8.03;;
8279;SDS011;8335;42.646;23.380;2022-11-20T00:27:16;10.83;;;6.90;;
8279;SDS011;8335;42.646;23.380;2022-11-20T00:29:42;8.40;;;5.70;;
8279;SDS011;8335;42.646;23.380;2022-11-20T00:32:09;10.40;;;6.60;;
8279;SDS011;8335;42.646;23.380;2022-11-20T00:34:36;8.03;;;5.90;;
8279;SDS011;8335;42.646;23.380;2022-11-20T00:37:04;6.80;;;3.43;;
8279;SDS011;8335;42.646;23.380;2022-11-20T00:39:31;5.40;;;3.23;;
8279;SDS011;8335;42.646;23.380;2022-11-20T00:41:58;6.87;;;4.40;;
8279;SDS011;8335;42.646;23.380;2022-11-20T00:44:24;6.37;;;4.27;;
8279;SDS011;8335;42.646;23.380;2022-11-20T00:46:51;8.03;;;3.97;;
8279;SDS011;8335;42.646;23.380;2022-11-20T00:49:18;5.97;;;3.53;;
8279;SDS011;8335;42.646;23.380;2022-11-20T00:51:44;6.40;;;4.27;;
8279;SDS011;8335;42.646;23.380;2022-11-20T00:54:13;5.07;;;3.73;;
8279;SDS011;8335;42.646;23.380;2022-11-20T00:56:39;6.60;;;3.37;;
8279;SDS011;8335;42.646;23.380;2022-11-20T00:59:08;4.23;;;3.30;;
8279;SDS011;8335;42.646;23.380;2022-11-20T01:01:36;7.73;;;3.73;;
8279;SDS011;8335;42.646;23.380;2022-11-20T01:04:03;5.93;;;3.77;;
8279;SDS011;8335;42.646;23.380;2022-11-20T01:06:31;4.80;;;3.20;;
8279;SDS011;8335;42.646;23.380;2022-11-20T01:09:00;4.40;;;3.70;;
8279;SDS011;8335;42.646;23.380;2022-11-20T01:11:31;6.00;;;3.40;;
8279;SDS011;8335;42.646;23.380;2022-11-20T01:14:00;7.47;;;3.40;;
8279;SDS011;8335;42.646;23.380;2022-11-20T01:16:28;9.03;;;3.50;;
8279;SDS011;8335;42.646;23.380;2022-11-20T01:18:57;6.73;;;3.40;;
8279;SDS011;8335;42.646;23.380;2022-11-20T01:21:27;4.70;;;3.17;;
8279;SDS011;8335;42.646;23.380;2022-11-20T01:23:54;13.27;;;3.47;;
8279;SDS011;8335;42.646;23.380;2022-11-20T01:26:22;5.17;;;3.30;;
8279;SDS011;8335;42.646;23.380;2022-11-20T01:28:52;5.83;;;3.23;;
8279;SDS011;8335;42.646;23.380;2022-11-20T01:31:20;4.40;;;3.67;;
8279;SDS011;8335;42.646;23.380;2022-11-20T01:33:49;6.13;;;3.30;;
8279;SDS011;8335;42.646;23.380;2022-11-20T01:36:18;6.47;;;3.73;;
8279;SDS011;8335;42.646;23.380;2022-11-20T01:38:46;7.57;;;3.83;;
8279;SDS011;8335;42.646;23.380;2022-11-20T01:41:14;4.63;;;3.60;;
8279;SDS011;8335;42.646;23.380;2022-11-20T01:44:03;4.90;;;3.70;;
8279;SDS011;8335;42.646;23.380;2022-11-20T01:46:30;5.03;;;3.87;;
8279;SDS011;8335;42.646;23.380;2022-11-20T01:48:58;4.67;;;3.57;;
8279;SDS011;8335;42.646;23.380;2022-11-20T01:51:29;4.60;;;3.60;;
8279;SDS011;8335;42.646;23.380;2022-11-20T01:54:00;7.60;;;4.10;;
8279;SDS011;8335;42.646;23.380;2022-11-20T01:56:31;5.00;;;4.37;;
8279;SDS011;8335;42.646;23.380;2022-11-20T01:59:05;6.63;;;4.20;;
8279;SDS011;8335;42.646;23.380;2022-11-20T02:01:33;4.10;;;3.40;;
8279;SDS011;8335;42.646;23.380;2022-11-20T02:04:00;5.43;;;3.73;;
8279;SDS011;8335;42.646;23.380;2022-11-20T02:06:28;6.90;;;3.77;;
8279;SDS011;8335;42.646;23.380;2022-11-20T02:09:01;5.60;;;3.70;;
8279;SDS011;8335;42.646;23.380;2022-11-20T02:11:29;5.37;;;3.73;;
8279;SDS011;8335;42.646;23.380;2022-11-20T02:13:56;6.10;;;4.00;;
8279;SDS011;8335;42.646;23.380;2022-11-20T02:16:25;5.00;;;3.60;;
8279;SDS011;8335;42.646;23.380;2022-11-20T02:18:55;6.07;;;3.60;;
8279;SDS011;8335;42.646;23.380;2022-11-20T02:21:27;5.00;;;3.17;;
8279;SDS011;8335;42.646;23.380;2022-11-20T02:24:04;6.17;;;3.60;;
8279;SDS011;8335;42.646;23.380;2022-11-20T02:26:34;6.57;;;2.90;;
8279;SDS011;8335;42.646;23.380;2022-11-20T02:29:09;9.73;;;2.50;;
8279;SDS011;8335;42.646;23.380;2022-11-20T02:31:36;4.50;;;2.90;;
8279;SDS011;8335;42.646;23.380;2022-11-20T02:34:04;3.03;;;2.00;;
8279;SDS011;8335;42.646;23.380;2022-11-20T02:36:32;5.57;;;2.43;;
8279;SDS011;8335;42.646;23.380;2022-11-20T02:39:01;4.33;;;2.23;;
8279;SDS011;8335;42.646;23.380;2022-11-20T02:41:33;2.43;;;1.80;;
8279;SDS011;8335;42.646;23.380;2022-11-20T02:44:01;3.00;;;1.90;;
8279;SDS011;8335;42.646;23.380;2022-11-20T02:46:28;4.90;;;1.60;;
8279;SDS011;8335;42.646;23.380;2022-11-20T02:48:55;2.33;;;1.60;;
8279;SDS011;8335;42.646;23.380;2022-11-20T02:51:22;2.37;;;1.80;;
8279;SDS011;8335;42.646;23.380;2022-11-20T02:53:49;2.03;;;1.40;;
8279;SDS011;8335;42.646;23.380;2022-11-20T02:56:16;1.87;;;1.50;;
8279;SDS011;8335;42.646;23.380;2022-11-20T02:58:44;1.83;;;1.37;;
8279;SDS011;8335;42.646;23.380;2022-11-20T03:01:11;3.00;;;1.20;;
8279;SDS011;8335;42.646;23.380;2022-11-20T03:03:38;2.53;;;1.60;;
8279;SDS011;8335;42.646;23.380;2022-11-20T03:06:05;2.33;;;1.30;;
8279;SDS011;8335;42.646;23.380;2022-11-20T03:08:32;5.93;;;1.60;;
8279;SDS011;8335;42.646;23.380;2022-11-20T03:11:01;4.03;;;1.37;;
8279;SDS011;8335;42.646;23.380;2022-11-20T03:13:29;3.17;;;1.38;;
8279;SDS011;8335;42.646;23.380;2022-11-20T03:15:57;2.40;;;1.38;;
8279;SDS011;8335;42.646;23.380;2022-11-20T03:18:24;3.65;;;1.30;;
8279;SDS011;8335;42.646;23.380;2022-11-20T03:20:56;3.20;;;1.60;;
8279;SDS011;8335;42.646;23.380;2022-11-20T03:23:23;2.70;;;1.20;;
8279;SDS011;8335;42.646;23.380;2022-11-20T03:25:50;6.73;;;1.17;;
8279;SDS011;8335;42.646;23.380;2022-11-20T03:28:17;3.10;;;1.20;;
8279;SDS011;8335;42.646;23.380;2022-11-20T03:30:43;2.33;;;1.23;;
8279;SDS011;8335;42.646;23.380;2022-11-20T03:33:11;7.50;;;1.60;;
8279;SDS011;8335;42.646;23.380;2022-11-20T03:35:38;3.33;;;1.35;;
8279;SDS011;8335;42.646;23.380;2022-11-20T03:38:05;3.05;;;1.58;;
8279;SDS011;8335;42.646;23.380;2022-11-20T03:40:33;4.13;;;1.60;;
8279;SDS011;8335;42.646;23.380;2022-11-20T03:43:00;2.63;;;1.20;;
8279;SDS011;8335;42.646;23.380;2022-11-20T03:45:27;3.42;;;1.25;;
8279;SDS011;8335;42.646;23.380;2022-11-20T03:47:54;3.33;;;1.85;;
8279;SDS011;8335;42.646;23.380;2022-11-20T03:50:22;2.10;;;1.30;;
8279;SDS011;8335;42.646;23.380;2022-11-20T03:52:48;2.60;;;1.40;;
8279;SDS011;8335;42.646;23.380;2022-11-20T03:55:15;4.15;;;1.67;;
8279;SDS011;8335;42.646;23.380;2022-11-20T03:57:42;4.13;;;1.63;;
8279;SDS011;8335;42.646;23.380;2022-11-20T04:00:09;2.65;;;1.30;;
8279;SDS011;8335;42.646;23.380;2022-11-20T04:02:37;2.43;;;1.30;;
8279;SDS011;8335;42.646;23.380;2022-11-20T04:05:04;1.90;;;1.50;;
8279;SDS011;8335;42.646;23.380;2022-11-20T04:07:33;3.20;;;1.30;;
8279;SDS011;8335;42.646;23.380;2022-11-20T04:10:00;4.38;;;1.20;;
8279;SDS011;8335;42.646;23.380;2022-11-20T04:12:27;5.10;;;1.95;;
8279;SDS011;8335;42.646;23.380;2022-11-20T04:14:53;1.88;;;1.30;;
8279;SDS011;8335;42.646;23.380;2022-11-20T04:17:20;4.63;;;1.43;;
8279;SDS011;8335;42.646;23.380;2022-11-20T04:19:47;3.33;;;1.30;;
8279;SDS011;8335;42.646;23.380;2022-11-20T04:22:13;3.47;;;1.40;;
8279;SDS011;8335;42.646;23.380;2022-11-20T04:24:42;3.67;;;1.38;;
8279;SDS011;8335;42.646;23.380;2022-11-20T04:27:08;4.50;;;1.40;;
8279;SDS011;8335;42.646;23.380;2022-11-20T04:29:35;3.60;;;1.30;;
8279;SDS011;8335;42.646;23.380;2022-11-20T04:32:02;3.08;;;1.30;;
8279;SDS011;8335;42.646;23.380;2022-11-20T04:34:29;5.47;;;1.42;;
8279;SDS011;8335;42.646;23.380;2022-11-20T04:36:55;1.80;;;1.20;;
8279;SDS011;8335;42.646;23.380;2022-11-20T04:39:22;1.45;;;1.00;;
8279;SDS011;8335;42.646;23.380;2022-11-20T04:41:50;3.75;;;1.15;;
8279;SDS011;8335;42.646;23.380;2022-11-20T04:44:37;4.90;;;1.30;;
8279;SDS011;8335;42.646;23.380;2022-11-20T04:47:04;2.23;;;1.13;;
8279;SDS011;8335;42.646;23.380;2022-11-20T04:49:31;2.63;;;1.45;;
8279;SDS011;8335;42.646;23.380;2022-11-20T04:51:58;5.45;;;1.80;;
8279;SDS011;8335;42.646;23.380;2022-11-20T04:54:25;3.97;;;1.40;;
8279;SDS011;8335;42.646;23.380;2022-11-20T04:56:53;5.00;;;1.35;;
8279;SDS011;8335;42.646;23.380;2022-11-20T04:59:20;4.68;;;1.33;;
8279;SDS011;8335;42.646;23.380;2022-11-20T05:01:47;3.00;;;1.30;;
8279;SDS011;8335;42.646;23.380;2022-11-20T05:04:14;5.30;;;1.23;;
8279;SDS011;8335;42.646;23.380;2022-11-20T05:06:40;4.47;;;1.48;;
8279;SDS011;8335;42.646;23.380;2022-11-20T05:09:07;1.77;;;1.30;;
8279;SDS011;8335;42.646;23.380;2022-11-20T05:11:34;7.32;;;1.40;;
8279;SDS011;8335;42.646;23.380;2022-11-20T05:14:02;1.50;;;1.20;;
8279;SDS011;8335;42.646;23.380;2022-11-20T05:16:29;2.40;;;1.08;;
8279;SDS011;8335;42.646;23.380;2022-11-20T05:18:55;4.25;;;1.40;;
8279;SDS011;8335;42.646;23.380;2022-11-20T05:21:22;1.43;;;1.20;;
8279;SDS011;8335;42.646;23.380;2022-11-20T05:23:49;2.03;;;1.37;;
8279;SDS011;8335;42.646;23.380;2022-11-20T05:26:16;3.40;;;1.60;;
8279;SDS011;8335;42.646;23.380;2022-11-20T05:28:46;3.73;;;1.37;;
8279;SDS011;8335;42.646;23.380;2022-11-20T05:31:15;3.73;;;1.60;;
8279;SDS011;8335;42.646;23.380;2022-11-20T05:33:43;5.23;;;1.60;;
8279;SDS011;8335;42.646;23.380;2022-11-20T05:36:11;4.43;;;1.77;;
8279;SDS011;8335;42.646;23.380;2022-11-20T05:38:39;5.60;;;1.63;;
8279;SDS011;8335;42.646;23.380;2022-11-20T05:41:07;5.20;;;1.60;;
8279;SDS011;8335;42.646;23.380;2022-11-20T05:43:36;2.80;;;1.60;;
8279;SDS011;8335;42.646;23.380;2022-11-20T05:46:04;5.10;;;1.70;;
8279;SDS011;8335;42.646;23.380;2022-11-20T05:48:33;2.67;;;1.60;;
8279;SDS011;8335;42.646;23.380;2022-11-20T05:51:01;6.50;;;1.63;;
8279;SDS011;8335;42.646;23.380;2022-11-20T05:53:29;11.30;;;3.13;;
8279;SDS011;8335;42.646;23.380;2022-11-20T05:55:57;3.20;;;2.00;;
8279;SDS011;8335;42.646;23.380;2022-11-20T05:58:24;2.73;;;1.53;;
8279;SDS011;8335;42.646;23.380;2022-11-20T06:00:51;4.30;;;2.00;;
8279;SDS011;8335;42.646;23.380;2022-11-20T06:03:18;5.07;;;1.60;;
8279;SDS011;8335;42.646;23.380;2022-11-20T06:05:46;3.10;;;1.87;;
8279;SDS011;8335;42.646;23.380;2022-11-20T06:08:13;4.10;;;1.83;;
8279;SDS011;8335;42.646;23.380;2022-11-20T06:10:40;5.83;;;2.03;;
8279;SDS011;8335;42.646;23.380;2022-11-20T06:13:06;4.87;;;1.90;;
8279;SDS011;8335;42.646;23.380;2022-11-20T06:15:33;4.03;;;1.70;;
8279;SDS011;8335;42.646;23.380;2022-11-20T06:18:00;3.73;;;1.73;;
8279;SDS011;8335;42.646;23.380;2022-11-20T06:20:27;4.07;;;1.90;;
8279;SDS011;8335;42.646;23.380;2022-11-20T06:22:55;6.60;;;2.50;;
8279;SDS011;8335;42.646;23.380;2022-11-20T06:25:21;4.83;;;1.80;;
8279;SDS011;8335;42.646;23.380;2022-11-20T06:27:48;3.13;;;1.70;;
8279;SDS011;8335;42.646;23.380;2022-11-20T06:30:15;5.67;;;1.80;;
8279;SDS011;8335;42.646;23.380;2022-11-20T06:32:42;5.20;;;1.90;;
8279;SDS011;8335;42.646;23.380;2022-11-20T06:35:09;4.13;;;1.80;;
8279;SDS011;8335;42.646;23.380;2022-11-20T06:37:36;5.03;;;1.73;;
8279;SDS011;8335;42.646;23.380;2022-11-20T06:40:05;5.90;;;1.93;;
8279;SDS011;8335;42.646;23.380;2022-11-20T06:42:32;4.43;;;1.73;;
8279;SDS011;8335;42.646;23.380;2022-11-20T06:44:59;4.13;;;1.90;;
8279;SDS011;8335;42.646;23.380;2022-11-20T06:47:26;4.20;;;1.63;;
8279;SDS011;8335;42.646;23.380;2022-11-20T06:49:53;8.17;;;1.80;;
8279;SDS011;8335;42.646;23.380;2022-11-20T06:52:19;3.20;;;1.60;;
8279;SDS011;8335;42.646;23.380;2022-11-20T06:54:46;4.73;;;1.70;;
8279;SDS011;8335;42.646;23.380;2022-11-20T06:57:14;3.43;;;1.67;;
8279;SDS011;8335;42.646;23.380;2022-11-20T06:59:41;4.23;;;2.00;;
8279;SDS011;8335;42.646;23.380;2022-11-20T07:02:09;2.83;;;1.80;;
8279;SDS011;8335;42.646;23.380;2022-11-20T07:04:36;5.60;;;2.00;;
8279;SDS011;8335;42.646;23.380;2022-11-20T07:07:03;3.37;;;1.83;;
8279;SDS011;8335;42.646;23.380;2022-11-20T07:09:31;3.03;;;1.70;;
8279;SDS011;8335;42.646;23.380;2022-11-20T07:11:57;4.07;;;2.13;;
8279;SDS011;8335;42.646;23.380;2022-11-20T07:14:26;5.80;;;1.57;;
8279;SDS011;8335;42.646;23.380;2022-11-20T07:16:52;2.63;;;1.40;;
8279;SDS011;8335;42.646;23.380;2022-11-20T07:19:19;6.37;;;1.50;;
8279;SDS011;8335;42.646;23.380;2022-11-20T07:21:46;5.97;;;1.40;;
8279;SDS011;8335;42.646;23.380;2022-11-20T07:24:12;3.20;;;1.40;;
8279;SDS011;8335;42.646;23.380;2022-11-20T07:26:39;3.50;;;1.40;;
8279;SDS011;8335;42.646;23.380;2022-11-20T07:29:06;1.97;;;1.50;;
8279;SDS011;8335;42.646;23.380;2022-11-20T07:31:34;4.87;;;1.60;;
8279;SDS011;8335;42.646;23.380;2022-11-20T07:34:01;4.27;;;1.53;;
8279;SDS011;8335;42.646;23.380;2022-11-20T07:36:27;6.37;;;1.60;;
8279;SDS011;8335;42.646;23.380;2022-11-20T07:38:54;3.50;;;1.50;;
8279;SDS011;8335;42.646;23.380;2022-11-20T07:41:21;3.10;;;1.70;;
8279;SDS011;8335;42.646;23.380;2022-11-20T07:43:48;4.33;;;1.90;;
8279;SDS011;8335;42.646;23.380;2022-11-20T07:46:14;5.22;;;1.60;;
8279;SDS011;8335;42.646;23.380;2022-11-20T07:48:42;4.63;;;1.67;;
8279;SDS011;8335;42.646;23.380;2022-11-20T07:51:09;3.53;;;1.50;;
8279;SDS011;8335;42.646;23.380;2022-11-20T07:53:36;5.07;;;2.03;;
8279;SDS011;8335;42.646;23.380;2022-11-20T07:56:03;5.37;;;1.43;;
8279;SDS011;8335;42.646;23.380;2022-11-20T07:58:30;3.80;;;1.43;;
8279;SDS011;8335;42.646;23.380;2022-11-20T08:01:01;7.90;;;1.90;;
8279;SDS011;8335;42.646;23.380;2022-11-20T08:03:29;5.13;;;1.73;;
8279;SDS011;8335;42.646;23.380;2022-11-20T08:05:59;2.77;;;1.70;;
8279;SDS011;8335;42.646;23.380;2022-11-20T08:08:26;3.40;;;1.40;;
8279;SDS011;8335;42.646;23.380;2022-11-20T08:10:53;4.67;;;1.63;;
8279;SDS011;8335;42.646;23.380;2022-11-20T08:13:41;4.80;;;1.90;;
8279;SDS011;8335;42.646;23.380;2022-11-20T08:16:25;5.00;;;2.67;;
8279;SDS011;8335;42.646;23.380;2022-11-20T08:18:51;7.40;;;3.47;;
8279;SDS011;8335;42.646;23.380;2022-11-20T08:21:19;6.72;;;2.10;;
8279;SDS011;8335;42.646;23.380;2022-11-20T08:23:46;6.60;;;2.20;;
8279;SDS011;8335;42.646;23.380;2022-11-20T08:26:13;6.32;;;1.70;;
8279;SDS011;8335;42.646;23.380;2022-11-20T08:28:40;5.43;;;1.60;;
8279;SDS011;8335;42.646;23.380;2022-11-20T08:31:07;5.38;;;1.80;;
8279;SDS011;8335;42.646;23.380;2022-11-20T08:33:35;6.55;;;1.98;;
8279;SDS011;8335;42.646;23.380;2022-11-20T08:36:02;6.07;;;1.73;;
8279;SDS011;8335;42.646;23.380;2022-11-20T08:38:31;2.85;;;1.50;;
8279;SDS011;8335;42.646;23.380;2022-11-20T08:40:58;4.45;;;1.55;;
8279;SDS011;8335;42.646;23.380;2022-11-20T08:43:43;3.10;;;1.35;;
8279;SDS011;8335;42.646;23.380;2022-11-20T08:46:10;4.80;;;1.52;;
8279;SDS011;8335;42.646;23.380;2022-11-20T08:48:37;3.97;;;1.70;;
8279;SDS011;8335;42.646;23.380;2022-11-20T08:51:04;3.60;;;1.52;;
8279;SDS011;8335;42.646;23.380;2022-11-20T08:53:32;5.43;;;1.58;;
8279;SDS011;8335;42.646;23.380;2022-11-20T08:55:59;7.60;;;2.10;;
8279;SDS011;8335;42.646;23.380;2022-11-20T08:58:26;4.25;;;2.10;;
8279;SDS011;8335;42.646;23.380;2022-11-20T09:00:53;7.43;;;1.95;;
8279;SDS011;8335;42.646;23.380;2022-11-20T09:03:20;5.35;;;1.65;;
8279;SDS011;8335;42.646;23.380;2022-11-20T09:05:47;6.43;;;1.80;;
8279;SDS011;8335;42.646;23.380;2022-11-20T09:08:13;4.18;;;1.70;;
8279;SDS011;8335;42.646;23.380;2022-11-20T09:10:42;6.85;;;1.63;;
8279;SDS011;8335;42.646;23.380;2022-11-20T09:13:08;5.57;;;2.08;;
8279;SDS011;8335;42.646;23.380;2022-11-20T09:15:35;9.38;;;3.28;;
8279;SDS011;8335;42.646;23.380;2022-11-20T09:18:02;8.82;;;2.92;;
8279;SDS011;8335;42.646;23.380;2022-11-20T09:20:29;4.82;;;2.67;;
8279;SDS011;8335;42.646;23.380;2022-11-20T09:22:57;7.38;;;2.90;;
8279;SDS011;8335;42.646;23.380;2022-11-20T09:25:24;7.10;;;2.95;;
8279;SDS011;8335;42.646;23.380;2022-11-20T09:27:55;5.47;;;3.08;;
8279;SDS011;8335;42.646;23.380;2022-11-20T09:30:23;8.10;;;4.13;;
8279;SDS011;8335;42.646;23.380;2022-11-20T09:32:50;6.38;;;3.95;;
8279;SDS011;8335;42.646;23.380;2022-11-20T09:35:17;6.97;;;3.83;;
8279;SDS011;8335;42.646;23.380;2022-11-20T09:37:44;7.55;;;3.85;;
8279;SDS011;8335;42.646;23.380;2022-11-20T09:40:16;6.50;;;3.07;;
8279;SDS011;8335;42.646;23.380;2022-11-20T09:42:47;4.72;;;3.13;;
8279;SDS011;8335;42.646;23.380;2022-11-20T09:45:28;7.23;;;2.53;;
8279;SDS011;8335;42.646;23.380;2022-11-20T09:48:16;4.13;;;2.45;;
8279;SDS011;8335;42.646;23.380;2022-11-20T09:50:52;3.47;;;2.10;;
8279;SDS011;8335;42.646;23.380;2022-11-20T09:53:26;4.40;;;1.90;;
8279;SDS011;8335;42.646;23.380;2022-11-20T09:56:00;7.90;;;5.10;;
8279;SDS011;8335;42.646;23.380;2022-11-20T09:58:31;7.07;;;2.67;;
8279;SDS011;8335;42.646;23.380;2022-11-20T10:01:05;5.03;;;2.60;;
8279;SDS011;8335;42.646;23.380;2022-11-20T10:03:39;6.80;;;2.67;;
8279;SDS011;8335;42.646;23.380;2022-11-20T10:06:16;3.60;;;2.17;;
8279;SDS011;8335;42.646;23.380;2022-11-20T10:08:45;2.70;;;1.90;;
8279;SDS011;8335;42.646;23.380;2022-11-20T10:11:19;2.80;;;1.90;;
8279;SDS011;8335;42.646;23.380;2022-11-20T10:13:53;4.43;;;1.87;;
8279;SDS011;8335;42.646;23.380;2022-11-20T10:16:28;6.50;;;2.60;;
8279;SDS011;8335;42.646;23.380;2022-11-20T10:19:07;5.27;;;2.37;;
8279;SDS011;8335;42.646;23.380;2022-11-20T10:21:49;6.90;;;2.80;;
8279;SDS011;8335;42.646;23.380;2022-11-20T10:24:34;8.30;;;3.00;;
8279;SDS011;8335;42.646;23.380;2022-11-20T10:27:14;6.30;;;2.80;;
8279;SDS011;8335;42.646;23.380;2022-11-20T10:30:00;14.60;;;3.17;;
8279;SDS011;8335;42.646;23.380;2022-11-20T10:32:32;7.50;;;2.90;;
8279;SDS011;8335;42.646;23.380;2022-11-20T10:35:05;6.43;;;3.63;;
8279;SDS011;8335;42.646;23.380;2022-11-20T10:37:41;9.23;;;3.60;;
8279;SDS011;8335;42.646;23.380;2022-11-20T10:40:17;6.33;;;3.73;;
8279;SDS011;8335;42.646;23.380;2022-11-20T10:42:48;7.17;;;3.70;;
8279;SDS011;8335;42.646;23.380;2022-11-20T10:45:25;6.93;;;3.70;;
8279;SDS011;8335;42.646;23.380;2022-11-20T10:48:07;5.47;;;3.17;;
8279;SDS011;8335;42.646;23.380;2022-11-20T10:50:40;10.88;;;3.30;;
8279;SDS011;8335;42.646;23.380;2022-11-20T10:53:16;7.93;;;3.37;;
8279;SDS011;8335;42.646;23.380;2022-11-20T10:55:58;6.20;;;3.80;;
8279;SDS011;8335;42.646;23.380;2022-11-20T10:58:33;11.03;;;3.10;;
8279;SDS011;8335;42.646;23.380;2022-11-20T11:01:13;7.30;;;3.27;;
8279;SDS011;8335;42.646;23.380;2022-11-20T11:03:43;7.17;;;3.57;;
8279;SDS011;8335;42.646;23.380;2022-11-20T11:06:12;10.30;;;3.90;;
8279;SDS011;8335;42.646;23.380;2022-11-20T11:08:47;10.30;;;3.70;;
8279;SDS011;8335;42.646;23.380;2022-11-20T11:11:20;7.03;;;3.80;;
8279;SDS011;8335;42.646;23.380;2022-11-20T11:13:48;9.30;;;4.13;;
8279;SDS011;8335;42.646;23.380;2022-11-20T11:16:19;7.43;;;3.60;;
8279;SDS011;8335;42.646;23.380;2022-11-20T11:18:48;8.93;;;3.97;;
8279;SDS011;8335;42.646;23.380;2022-11-20T11:21:20;9.37;;;4.77;;
8279;SDS011;8335;42.646;23.380;2022-11-20T11:23:56;14.00;;;4.87;;
8279;SDS011;8335;42.646;23.380;2022-11-20T11:26:25;13.23;;;5.23;;
8279;SDS011;8335;42.646;23.380;2022-11-20T11:28:53;9.33;;;4.43;;
8279;SDS011;8335;42.646;23.380;2022-11-20T11:31:24;12.00;;;3.83;;
8279;SDS011;8335;42.646;23.380;2022-11-20T11:34:02;8.57;;;3.37;;
8279;SDS011;8335;42.646;23.380;2022-11-20T11:36:30;4.13;;;2.17;;
8279;SDS011;8335;42.646;23.380;2022-11-20T11:38:59;2.17;;;1.40;;
8279;SDS011;8335;42.646;23.380;2022-11-20T11:41:30;2.50;;;1.60;;
8279;SDS011;8335;42.646;23.380;2022-11-20T11:44:01;2.47;;;1.50;;
8279;SDS011;8335;42.646;23.380;2022-11-20T11:47:04;4.70;;;1.13;;
8279;SDS011;8335;42.646;23.380;2022-11-20T11:49:36;3.13;;;1.10;;
8279;SDS011;8335;42.646;23.380;2022-11-20T11:52:04;4.57;;;1.30;;
8279;SDS011;8335;42.646;23.380;2022-11-20T11:54:41;1.63;;;1.33;;
8279;SDS011;8335;42.646;23.380;2022-11-20T11:57:14;3.60;;;1.90;;
8279;SDS011;8335;42.646;23.380;2022-11-20T11:59:51;7.17;;;1.80;;
8279;SDS011;8335;42.646;23.380;2022-11-20T12:02:29;2.57;;;1.37;;
8279;SDS011;8335;42.646;23.380;2022-11-20T12:05:04;4.83;;;1.40;;
8279;SDS011;8335;42.646;23.380;2022-11-20T12:07:41;4.13;;;1.40;;
8279;SDS011;8335;42.646;23.380;2022-11-20T12:10:14;2.90;;;1.20;;
8279;SDS011;8335;42.646;23.380;2022-11-20T12:12:46;3.60;;;1.23;;
8279;SDS011;8335;42.646;23.380;2022-11-20T12:15:21;3.33;;;1.30;;
8279;SDS011;8335;42.646;23.380;2022-11-20T12:17:52;1.53;;;1.00;;
8279;SDS011;8335;42.646;23.380;2022-11-20T12:20:21;5.27;;;1.00;;
8279;SDS011;8335;42.646;23.380;2022-11-20T12:22:51;1.43;;;0.90;;
8279;SDS011;8335;42.646;23.380;2022-11-20T12:25:24;3.43;;;1.00;;
8279;SDS011;8335;42.646;23.380;2022-11-20T12:28:05;1.57;;;1.00;;
8279;SDS011;8335;42.646;23.380;2022-11-20T12:30:52;0.93;;;0.70;;
8279;SDS011;8335;42.646;23.380;2022-11-20T12:33:39;2.27;;;1.00;;
8279;SDS011;8335;42.646;23.380;2022-11-20T12:36:21;1.23;;;0.73;;
8279;SDS011;8335;42.646;23.380;2022-11-20T12:38:58;2.27;;;1.00;;
8279;SDS011;8335;42.646;23.380;2022-11-20T12:41:43;1.10;;;1.00;;
8279;SDS011;8335;42.646;23.380;2022-11-20T12:44:42;3.20;;;1.00;;
8279;SDS011;8335;42.646;23.380;2022-11-20T12:47:45;1.60;;;0.97;;
8279;SDS011;8335;42.646;23.380;2022-11-20T12:50:23;3.80;;;1.27;;
8279;SDS011;8335;42.646;23.380;2022-11-20T12:53:01;4.80;;;1.30;;
8279;SDS011;8335;42.646;23.380;2022-11-20T12:55:33;1.77;;;1.10;;
8279;SDS011;8335;42.646;23.380;2022-11-20T12:58:10;3.60;;;1.30;;
8279;SDS011;8335;42.646;23.380;2022-11-20T13:00:47;4.40;;;1.20;;
8279;SDS011;8335;42.646;23.380;2022-11-20T13:03:27;4.37;;;1.50;;
8279;SDS011;8335;42.646;23.380;2022-11-20T13:06:15;5.77;;;2.13;;
8279;SDS011;8335;42.646;23.380;2022-11-20T13:08:45;4.17;;;1.70;;
8279;SDS011;8335;42.646;23.380;2022-11-20T13:11:19;5.23;;;1.83;;
8279;SDS011;8335;42.646;23.380;2022-11-20T13:14:01;4.13;;;2.00;;
8279;SDS011;8335;42.646;23.380;2022-11-20T13:16:38;5.33;;;1.53;;
8279;SDS011;8335;42.646;23.380;2022-11-20T13:19:15;4.33;;;1.97;;
8279;SDS011;8335;42.646;23.380;2022-11-20T13:21:44;6.43;;;2.73;;
8279;SDS011;8335;42.646;23.380;2022-11-20T13:24:22;4.40;;;2.70;;
8279;SDS011;8335;42.646;23.380;2022-11-20T13:27:05;7.53;;;3.00;;
8279;SDS011;8335;42.646;23.380;2022-11-20T13:29:45;7.10;;;2.63;;
8279;SDS011;8335;42.646;23.380;2022-11-20T13:32:13;3.57;;;2.33;;
8279;SDS011;8335;42.646;23.380;2022-11-20T13:34:50;8.60;;;2.77;;
8279;SDS011;8335;42.646;23.380;2022-11-20T13:37:24;6.70;;;2.70;;
8279;SDS011;8335;42.646;23.380;2022-11-20T13:40:04;6.73;;;2.80;;
8279;SDS011;8335;42.646;23.380;2022-11-20T13:42:38;4.67;;;2.37;;
8279;SDS011;8335;42.646;23.380;2022-11-20T13:45:10;7.00;;;2.80;;
8279;SDS011;8335;42.646;23.380;2022-11-20T13:47:48;6.67;;;2.93;;
8279;SDS011;8335;42.646;23.380;2022-11-20T13:50:15;6.17;;;3.40;;
8279;SDS011;8335;42.646;23.380;2022-11-20T13:52:45;6.20;;;3.07;;
8279;SDS011;8335;42.646;23.380;2022-11-20T13:55:23;5.00;;;2.83;;
8279;SDS011;8335;42.646;23.380;2022-11-20T13:57:59;10.40;;;3.03;;
8279;SDS011;8335;42.646;23.380;2022-11-20T14:00:33;8.27;;;3.60;;
8279;SDS011;8335;42.646;23.380;2022-11-20T14:03:16;7.03;;;3.17;;
8279;SDS011;8335;42.646;23.380;2022-11-20T14:05:47;6.07;;;3.30;;
8279;SDS011;8335;42.646;23.380;2022-11-20T14:08:20;7.70;;;3.10;;
8279;SDS011;8335;42.646;23.380;2022-11-20T14:11:03;5.40;;;2.90;;
8279;SDS011;8335;42.646;23.380;2022-11-20T14:13:31;7.93;;;3.97;;
8279;SDS011;8335;42.646;23.380;2022-11-20T14:15:58;8.77;;;3.80;;
8279;SDS011;8335;42.646;23.380;2022-11-20T14:18:25;8.67;;;3.57;;
8279;SDS011;8335;42.646;23.380;2022-11-20T14:20:53;8.07;;;3.43;;
8279;SDS011;8335;42.646;23.380;2022-11-20T14:23:23;5.73;;;3.33;;
8279;SDS011;8335;42.646;23.380;2022-11-20T14:25:51;8.87;;;4.27;;
8279;SDS011;8335;42.646;23.380;2022-11-20T14:28:21;6.50;;;3.50;;
8279;SDS011;8335;42.646;23.380;2022-11-20T14:30:52;9.57;;;3.87;;
8279;SDS011;8335;42.646;23.380;2022-11-20T14:33:20;6.53;;;3.60;;
8279;SDS011;8335;42.646;23.380;2022-11-20T14:35:50;9.33;;;3.73;;
8279;SDS011;8335;42.646;23.380;2022-11-20T14:38:19;7.30;;;4.07;;
8279;SDS011;8335;42.646;23.380;2022-11-20T14:40:48;5.37;;;3.57;;
8279;SDS011;8335;42.646;23.380;2022-11-20T14:43:17;8.47;;;4.00;;
8279;SDS011;8335;42.646;23.380;2022-11-20T14:45:48;12.97;;;4.90;;
8279;SDS011;8335;42.646;23.380;2022-11-20T14:48:22;16.67;;;5.80;;
8279;SDS011;8335;42.646;23.380;2022-11-20T14:50:54;8.47;;;4.20;;
8279;SDS011;8335;42.646;23.380;2022-11-20T14:53:22;11.83;;;4.83;;
8279;SDS011;8335;42.646;23.380;2022-11-20T14:55:54;8.83;;;4.33;;
8279;SDS011;8335;42.646;23.380;2022-11-20T14:58:22;8.93;;;4.17;;
8279;SDS011;8335;42.646;23.380;2022-11-20T15:00:54;9.67;;;4.10;;
8279;SDS011;8335;42.646;23.380;2022-11-20T15:03:22;8.90;;;4.50;;
8279;SDS011;8335;42.646;23.380;2022-11-20T15:05:49;10.20;;;4.40;;
8279;SDS011;8335;42.646;23.380;2022-11-20T15:08:17;8.07;;;4.10;;
8279;SDS011;8335;42.646;23.380;2022-11-20T15:10:48;11.53;;;4.93;;
8279;SDS011;8335;42.646;23.380;2022-11-20T15:13:17;9.03;;;5.17;;
8279;SDS011;8335;42.646;23.380;2022-11-20T15:15:51;12.37;;;5.27;;
8279;SDS011;8335;42.646;23.380;2022-11-20T15:18:21;8.80;;;4.83;;